createdAt,value
2019-04-10T00:01:19.445Z,100654.44
2019-04-10T00:03:50.549Z,100651.47
2019-04-10T00:06:21.721Z,100655.29
2019-04-10T00:08:52.876Z,100654.66
2019-04-10T00:11:24.830Z,100657.58
2019-04-10T00:13:55.782Z,100658.41
2019-04-10T00:16:27.822Z,100661.28
2019-04-10T00:18:59.191Z,100670.53
2019-04-10T00:21:31.334Z,100653.13
2019-04-10T00:24:02.457Z,100669.13
2019-04-10T00:26:34.060Z,100671.72
2019-04-10T00:29:05.737Z,100668.31
2019-04-10T00:31:36.649Z,100669.79
2019-04-10T00:34:07.561Z,100673.52
2019-04-10T00:36:39.414Z,100672.56
2019-04-10T00:39:10.564Z,100664.55
2019-04-10T00:41:41.559Z,100676.98
2019-04-10T00:44:13.502Z,100674.50
2019-04-10T00:46:44.455Z,100667.76
2019-04-10T00:49:15.566Z,100673.38
2019-04-10T00:51:47.781Z,100666.64
2019-04-10T00:54:22.053Z,100658.42
2019-04-10T00:56:53.374Z,100663.42
2019-04-10T00:59:24.277Z,100660.59
2019-04-10T01:01:56.210Z,100665.06
2019-04-10T01:04:27.330Z,100671.91
2019-04-10T01:06:58.229Z,100669.78
2019-04-10T01:09:29.497Z,100669.75
2019-04-10T01:12:01.808Z,100673.66
2019-04-10T01:14:34.260Z,100676.22
2019-04-10T01:17:06.224Z,100677.81
2019-04-10T01:19:37.745Z,100674.25
2019-04-10T01:22:09.026Z,100675.28
2019-04-10T01:24:39.901Z,100687.09
2019-04-10T01:27:11.780Z,100679.06
2019-04-10T01:29:43.951Z,100672.10
2019-04-10T01:32:15.424Z,100678.16
2019-04-10T01:34:46.544Z,100670.25
2019-04-10T01:37:18.758Z,100672.78
2019-04-10T01:39:50.648Z,100672.72
2019-04-10T01:42:22.792Z,100670.56
2019-04-10T01:44:55.221Z,100666.02
2019-04-10T01:47:26.911Z,100668.60
2019-04-10T01:49:58.103Z,100661.70
2019-04-10T01:52:31.197Z,100663.58
2019-04-10T01:55:16.014Z,100662.92
2019-04-10T01:57:35.323Z,100655.59
2019-04-10T02:00:06.818Z,100662.31
2019-04-10T02:02:45.451Z,100655.52
2019-04-10T02:05:16.694Z,100656.51
2019-04-10T02:07:59.334Z,100664.86
2019-04-10T02:10:20.800Z,100665.42
2019-04-10T02:12:52.636Z,100671.39
2019-04-10T02:15:23.617Z,100673.22
2019-04-10T02:17:55.101Z,100665.13
2019-04-10T02:20:27.077Z,100662.62
2019-04-10T02:22:58.465Z,100665.30
2019-04-10T02:25:30.607Z,100662.55
2019-04-10T02:28:02.701Z,100643.67
2019-04-10T02:30:34.741Z,100658.39
2019-04-10T02:33:08.407Z,100659.45
2019-04-10T02:35:40.033Z,100660.27
2019-04-10T02:38:34.157Z,100662.55
2019-04-10T02:40:45.568Z,100660.66
2019-04-10T02:43:16.775Z,100655.86
2019-04-10T02:45:49.390Z,100660.39
2019-04-10T02:48:20.300Z,100663.20
2019-04-10T02:50:51.543Z,100665.06
2019-04-10T02:53:23.317Z,100671.72
2019-04-10T02:55:55.777Z,100665.44
2019-04-10T02:58:26.761Z,100667.77
2019-04-10T03:00:59.060Z,100668.26
2019-04-10T03:03:30.765Z,100669.56
2019-04-10T03:06:02.603Z,100659.69
2019-04-10T03:08:44.547Z,100657.91
2019-04-10T03:11:10.951Z,100657.74
2019-04-10T03:13:39.621Z,100658.16
2019-04-10T03:16:11.762Z,100656.12
2019-04-10T03:18:43.194Z,100657.36
2019-04-10T03:21:15.367Z,100646.59
2019-04-10T03:23:46.145Z,100651.81
2019-04-10T03:26:17.368Z,100650.97
2019-04-10T03:28:49.305Z,100654.87
2019-04-10T03:31:23.022Z,100664.39
2019-04-10T03:34:16.924Z,100651.88
2019-04-10T03:36:49.045Z,100652.72
2019-04-10T03:39:21.619Z,100655.50
2019-04-10T03:41:52.743Z,100650.98
2019-04-10T03:44:24.911Z,100644.44
2019-04-10T03:46:56.137Z,100649.25
2019-04-10T03:49:27.639Z,100607.80
2019-04-10T03:51:58.533Z,100643.22
2019-04-10T03:54:30.221Z,100643.65
2019-04-10T03:57:01.022Z,100638.51
2019-04-10T03:59:32.670Z,100646.80
2019-04-10T04:02:03.622Z,100642.75
2019-04-10T04:04:34.553Z,100643.25
2019-04-10T04:07:05.437Z,100648.02
2019-04-10T04:09:37.733Z,100660.42
2019-04-10T04:12:09.221Z,100655.21
2019-04-10T04:14:40.840Z,100668.10
2019-04-10T04:17:12.023Z,100671.58
2019-04-10T04:19:43.160Z,100669.10
2019-04-10T04:22:14.624Z,100669.09
2019-04-10T04:24:46.174Z,100675.34
2019-04-10T04:27:17.552Z,100671.05
2019-04-10T04:29:49.890Z,100671.26
2019-04-10T04:32:21.762Z,100673.87
2019-04-10T04:34:52.868Z,100662.91
2019-04-10T04:37:24.014Z,100674.94
2019-04-10T04:39:56.295Z,100679.06
2019-04-10T04:42:28.756Z,100671.23
2019-04-10T04:45:00.775Z,100671.23
2019-04-10T04:47:36.451Z,100678.73
2019-04-10T04:50:07.756Z,100682.67
2019-04-10T04:52:41.114Z,100681.11
2019-04-10T04:55:12.326Z,100686.55
2019-04-10T04:57:43.028Z,100690.46
2019-04-10T05:00:15.167Z,100705.05
2019-04-10T05:02:47.068Z,100711.85
2019-04-10T05:05:19.850Z,100715.71
2019-04-10T05:07:59.330Z,100716.98
2019-04-10T05:10:25.132Z,100713.00
2019-04-10T05:15:37.305Z,100712.80
2019-04-10T05:18:08.215Z,100716.72
2019-04-10T05:20:45.158Z,100729.67
2019-04-10T05:23:12.425Z,100726.22
2019-04-10T05:25:43.476Z,100726.22
2019-04-10T05:28:15.219Z,100720.77
2019-04-10T05:30:47.468Z,100731.50
2019-04-10T05:33:18.954Z,100725.29
2019-04-10T05:35:50.769Z,100728.34
2019-04-10T05:38:22.590Z,100730.30
2019-04-10T05:40:55.184Z,100731.23
2019-04-10T05:43:28.167Z,100738.27
2019-04-10T05:45:59.402Z,100730.32
2019-04-10T05:48:31.531Z,100741.98
2019-04-10T05:51:05.630Z,100738.95
2019-04-10T05:53:35.083Z,100738.25
2019-04-10T05:56:06.074Z,100745.42
2019-04-10T05:58:37.199Z,100738.92
2019-04-10T06:01:09.493Z,100734.25
2019-04-10T06:03:40.823Z,100739.60
2019-04-10T06:06:12.522Z,100741.52
2019-04-10T06:08:44.701Z,100738.58
2019-04-10T06:11:15.527Z,100739.94
2019-04-10T06:13:46.665Z,100745.37
2019-04-10T06:16:18.034Z,100739.98
2019-04-10T06:18:48.948Z,100742.64
2019-04-10T06:21:21.067Z,100740.49
2019-04-10T06:23:52.213Z,100744.55
2019-04-10T06:26:23.693Z,100745.94
2019-04-10T06:28:55.271Z,100751.46
2019-04-10T06:31:26.164Z,100744.00
2019-04-10T06:33:58.310Z,100754.86
2019-04-10T06:36:29.721Z,100751.05
2019-04-10T06:39:00.582Z,100757.88
2019-04-10T06:41:33.003Z,100759.59
2019-04-10T06:44:03.838Z,100758.95
2019-04-10T06:46:37.546Z,100757.59
2019-04-10T06:49:09.157Z,100753.55
2019-04-10T06:51:41.051Z,100758.83
2019-04-10T06:54:12.927Z,100766.77
2019-04-10T06:56:45.072Z,100725.25
2019-04-10T06:59:16.638Z,100771.45
2019-04-10T07:01:52.604Z,100747.67
2019-04-10T07:04:24.046Z,100776.52
2019-04-10T07:07:00.108Z,100782.48
2019-04-10T07:09:27.052Z,100780.02
2019-04-10T07:12:01.488Z,100788.69
2019-04-10T07:14:35.475Z,100782.41
2019-04-10T07:17:07.073Z,100785.62
2019-04-10T07:19:37.765Z,100784.41
2019-04-10T07:22:12.426Z,100782.87
2019-04-10T07:24:42.628Z,100781.19
2019-04-10T07:27:14.037Z,100787.78
2019-04-10T07:29:45.176Z,100783.42
2019-04-10T07:32:16.881Z,100784.11
2019-04-10T07:34:48.738Z,100780.19
2019-04-10T07:37:22.490Z,100783.26
2019-04-10T07:39:52.999Z,100785.46
2019-04-10T07:42:29.414Z,100798.88
2019-04-10T07:44:57.776Z,100794.80
2019-04-10T07:47:29.235Z,100799.64
2019-04-10T07:50:02.127Z,100789.52
2019-04-10T07:52:33.023Z,100797.59
2019-04-10T07:55:04.501Z,100797.83
2019-04-10T07:57:36.391Z,100800.70
2019-04-10T08:00:09.071Z,100800.46
2019-04-10T08:02:40.560Z,100802.00
2019-04-10T08:05:12.288Z,100800.81
2019-04-10T08:07:45.150Z,100808.73
2019-04-10T08:10:20.184Z,100795.80
2019-04-10T08:12:54.210Z,100806.94
2019-04-10T08:15:25.190Z,100798.58
2019-04-10T08:17:58.298Z,100797.59
2019-04-10T08:20:30.666Z,100812.08
2019-04-10T08:23:01.664Z,100804.42
2019-04-10T08:25:33.759Z,100812.87
2019-04-10T08:28:04.621Z,100810.09
2019-04-10T08:30:36.230Z,100808.44
2019-04-10T08:33:07.778Z,100811.09
2019-04-10T08:35:39.862Z,100807.09
2019-04-10T08:38:13.037Z,100812.80
2019-04-10T08:40:44.492Z,100811.24
2019-04-10T08:43:15.841Z,100808.89
2019-04-10T08:45:51.042Z,100810.73
2019-04-10T08:48:19.327Z,100809.07
2019-04-10T08:50:50.738Z,100813.86
2019-04-10T08:53:22.211Z,100801.92
2019-04-10T08:55:54.662Z,100807.01
2019-04-10T08:58:25.563Z,100813.38
2019-04-10T09:00:56.617Z,100812.09
2019-04-10T09:03:27.745Z,100817.74
2019-04-10T09:05:58.831Z,100817.69
2019-04-10T09:08:29.959Z,100812.94
2019-04-10T09:11:01.041Z,100816.77
2019-04-10T09:13:32.680Z,100813.28
2019-04-10T09:16:04.547Z,100820.23
2019-04-10T09:18:37.218Z,100809.98
2019-04-10T09:21:08.126Z,100803.92
2019-04-10T09:23:46.725Z,100806.16
2019-04-10T09:26:13.366Z,100800.75
2019-04-10T09:28:44.833Z,100800.33
2019-04-10T09:31:15.993Z,100792.63
2019-04-10T09:33:47.409Z,100802.09
2019-04-10T09:36:19.765Z,100795.75
2019-04-10T09:38:52.789Z,100794.31
2019-04-10T09:41:25.890Z,100789.03
2019-04-10T09:43:58.181Z,100797.56
2019-04-10T09:46:29.170Z,100796.58
2019-04-10T09:49:00.516Z,100796.09
2019-04-10T09:51:34.157Z,100789.48
2019-04-10T09:54:05.642Z,100801.33
2019-04-10T09:56:36.698Z,100792.29
2019-04-10T09:59:07.636Z,100794.47
2019-04-10T10:01:38.466Z,100786.47
2019-04-10T10:04:09.275Z,100791.88
2019-04-10T10:06:40.118Z,100792.08
2019-04-10T10:09:10.968Z,100787.03
2019-04-10T10:11:42.738Z,100776.95
2019-04-10T10:14:14.539Z,100767.06
2019-04-10T10:16:46.313Z,100767.31
2019-04-10T10:19:18.278Z,100787.55
2019-04-10T10:21:50.463Z,100788.98
2019-04-10T10:24:22.278Z,100780.40
2019-04-10T10:26:53.600Z,100783.39
2019-04-10T10:29:25.981Z,100787.80
2019-04-10T10:31:57.015Z,100783.61
2019-04-10T10:34:28.298Z,100790.97
2019-04-10T10:37:00.100Z,100786.98
2019-04-10T10:39:31.002Z,100786.58
2019-04-10T10:42:03.235Z,100782.70
2019-04-10T10:44:34.465Z,100788.73
2019-04-10T10:47:06.293Z,100791.88
2019-04-10T10:49:37.239Z,100794.14
2019-04-10T10:52:09.064Z,100791.25
2019-04-10T10:54:41.074Z,100790.13
2019-04-10T10:57:13.158Z,100776.61
2019-04-10T10:59:44.654Z,100779.08
2019-04-10T11:02:15.506Z,100786.67
2019-04-10T11:04:47.420Z,100792.13
2019-04-10T11:07:18.697Z,100788.75
2019-04-10T11:09:50.376Z,100786.64
2019-04-10T11:12:22.012Z,100787.51
2019-04-10T11:14:53.811Z,100783.58
2019-04-10T11:17:25.504Z,100781.88
2019-04-10T11:19:56.769Z,100773.47
2019-04-10T11:22:27.671Z,100782.55
2019-04-10T11:24:59.700Z,100779.33
2019-04-10T11:27:31.770Z,100772.39
2019-04-10T11:30:03.534Z,100775.12
2019-04-10T11:32:36.944Z,100767.21
2019-04-10T11:35:08.876Z,100777.19
2019-04-10T11:37:44.577Z,100774.48
2019-04-10T11:40:16.341Z,100770.76
2019-04-10T11:42:46.792Z,100779.11
2019-04-10T11:45:19.161Z,100774.65
2019-04-10T11:47:51.257Z,100776.96
2019-04-10T11:50:24.668Z,100773.64
2019-04-10T11:52:56.744Z,100777.40
2019-04-10T11:55:28.250Z,100778.53
2019-04-10T11:58:00.168Z,100780.70
2019-04-10T12:03:15.206Z,100779.81
2019-04-10T12:05:48.032Z,100767.54
2019-04-10T12:08:44.893Z,100777.08
2019-04-10T12:11:10.901Z,100768.17
2019-04-10T12:13:24.840Z,100772.52
2019-04-10T12:15:56.693Z,100777.74
2019-04-10T12:18:28.509Z,100775.04
2019-04-10T12:20:59.759Z,100766.77
2019-04-10T12:23:30.580Z,100782.91
2019-04-10T12:26:01.757Z,100780.19
2019-04-10T12:28:33.926Z,100775.08
2019-04-10T12:31:06.007Z,100781.66
2019-04-10T12:33:38.003Z,100781.64
2019-04-10T12:36:10.704Z,100783.80
2019-04-10T12:38:41.952Z,100789.75
2019-04-10T12:41:12.792Z,100784.38
2019-04-10T12:43:43.726Z,100783.08
2019-04-10T12:46:14.989Z,100781.09
2019-04-10T12:48:47.213Z,100776.22
2019-04-10T12:51:19.315Z,100777.31
2019-04-10T12:53:50.520Z,100786.14
2019-04-10T12:56:22.009Z,100777.25
2019-04-10T12:58:53.214Z,100785.05
2019-04-10T13:01:24.761Z,100778.39
2019-04-10T13:03:55.777Z,100772.69
2019-04-10T13:06:26.564Z,100772.73
2019-04-10T13:09:07.121Z,100770.56
2019-04-10T13:11:30.806Z,100775.20
2019-04-10T13:14:02.197Z,100764.33
2019-04-10T13:16:34.123Z,100766.13
2019-04-10T13:19:05.264Z,100766.73
2019-04-10T13:21:36.920Z,100769.63
2019-04-10T13:24:09.023Z,100771.56
2019-04-10T13:26:40.051Z,100772.37
2019-04-10T13:29:11.993Z,100771.08
2019-04-10T13:31:42.868Z,100776.26
2019-04-10T13:34:13.822Z,100775.66
2019-04-10T13:36:46.041Z,100769.69
2019-04-10T13:39:18.902Z,100766.95
2019-04-10T13:41:50.452Z,100760.50
2019-04-10T13:44:22.360Z,100760.33
2019-04-10T13:46:53.887Z,100754.74
2019-04-10T13:49:24.724Z,100757.25
2019-04-10T13:51:56.203Z,100760.51
2019-04-10T13:54:27.076Z,100749.43
2019-04-10T13:56:57.953Z,100767.12
2019-04-10T13:59:29.017Z,100767.55
2019-04-10T14:02:00.552Z,100756.38
2019-04-10T14:04:31.889Z,100754.58
2019-04-10T14:07:04.358Z,100758.36
2019-04-10T14:09:43.192Z,100752.34
2019-04-10T14:12:08.036Z,100754.41
2019-04-10T14:14:38.793Z,100756.25
2019-04-10T14:17:09.805Z,100752.66
2019-04-10T14:19:41.520Z,100755.44
2019-04-10T14:22:13.472Z,100762.23
2019-04-10T14:24:47.689Z,100760.53
2019-04-10T14:27:22.847Z,100766.21
2019-04-10T14:29:54.569Z,100774.70
2019-04-10T14:32:31.301Z,100778.30
2019-04-10T14:35:03.150Z,100768.61
2019-04-10T14:37:34.090Z,100766.56
2019-04-10T14:40:06.939Z,100766.25
2019-04-10T14:42:38.500Z,100766.39
2019-04-10T14:45:11.029Z,100772.98
2019-04-10T14:47:43.375Z,100768.84
2019-04-10T14:50:15.636Z,100767.38
2019-04-10T14:52:47.534Z,100763.98
2019-04-10T14:55:20.544Z,100764.98
2019-04-10T14:57:53.010Z,100764.98
2019-04-10T15:00:32.893Z,100774.06
2019-04-10T15:03:04.404Z,100781.61
2019-04-10T15:05:45.399Z,100775.59
2019-04-10T15:08:09.249Z,100774.09
2019-04-10T15:10:40.177Z,100775.13
2019-04-10T15:13:16.282Z,100775.28
2019-04-10T15:15:44.919Z,100771.84
2019-04-10T15:18:15.807Z,100767.91
2019-04-10T15:20:47.272Z,100769.16
2019-04-10T15:23:20.274Z,100773.86
2019-04-10T15:25:51.296Z,100777.99
2019-04-10T15:28:23.215Z,100779.78
2019-04-10T15:30:55.056Z,100775.13
2019-04-10T15:33:26.694Z,100779.31
2019-04-10T15:35:59.678Z,100785.01
2019-04-10T15:38:30.681Z,100780.30
2019-04-10T15:41:02.958Z,100785.50
2019-04-10T15:43:35.092Z,100786.23
2019-04-10T15:46:05.959Z,100792.67
2019-04-10T15:48:37.687Z,100783.23
2019-04-10T15:51:08.848Z,100797.41
2019-04-10T15:53:41.045Z,100794.66
2019-04-10T15:56:12.029Z,100803.35
2019-04-10T15:58:43.809Z,100800.16
2019-04-10T16:01:18.578Z,100799.52
2019-04-10T16:03:50.588Z,100794.03
2019-04-10T16:06:22.924Z,100797.77
2019-04-10T16:08:54.230Z,100787.59
2019-04-10T16:11:36.218Z,100794.74
2019-04-10T16:14:18.746Z,100803.84
2019-04-10T16:16:57.032Z,100806.91
2019-04-10T16:19:47.088Z,100800.57
2019-04-10T16:22:24.261Z,100804.19
2019-04-10T16:24:58.016Z,100806.84
2019-04-10T16:27:29.002Z,100803.63
2019-04-10T16:30:03.021Z,100810.90
2019-04-10T16:32:34.850Z,100808.10
2019-04-10T16:35:07.180Z,100812.67
2019-04-10T16:37:38.455Z,100813.27
2019-04-10T16:40:10.459Z,100807.73
2019-04-10T16:42:43.646Z,100813.29
2019-04-10T16:45:17.528Z,100810.66
2019-04-10T16:47:48.709Z,100809.23
2019-04-10T16:50:19.702Z,100815.80
2019-04-10T16:52:51.458Z,100814.40
2019-04-10T16:55:22.788Z,100814.84
2019-04-10T16:57:53.632Z,100817.34
2019-04-10T17:00:24.585Z,100815.20
2019-04-10T17:02:56.619Z,100820.03
2019-04-10T17:05:28.248Z,100820.97
2019-04-10T17:08:01.901Z,100817.89
2019-04-10T17:10:32.777Z,100824.05
2019-04-10T17:13:04.455Z,100826.39
2019-04-10T17:15:36.347Z,100827.75
2019-04-10T17:18:08.682Z,100825.30
2019-04-10T17:20:40.415Z,100828.12
2019-04-10T17:23:12.289Z,100823.63
2019-04-10T17:25:44.353Z,100827.78
2019-04-10T17:28:16.416Z,100824.33
2019-04-10T17:30:47.661Z,100826.52
2019-04-10T17:33:18.693Z,100824.41
2019-04-10T17:35:49.639Z,100834.39
2019-04-10T17:38:20.557Z,100831.89
2019-04-10T17:40:55.562Z,100832.42
2019-04-10T17:43:26.981Z,100843.21
2019-04-10T17:45:58.615Z,100849.95
2019-04-10T17:48:31.218Z,100844.67
2019-04-10T17:51:03.897Z,100846.48
2019-04-10T17:53:35.750Z,100854.52
2019-04-10T17:56:06.694Z,100856.47
2019-04-10T17:58:37.946Z,100857.55
2019-04-10T18:01:12.612Z,100862.72
2019-04-10T18:03:51.624Z,100860.97
2019-04-10T18:06:17.343Z,100861.64
2019-04-10T18:08:49.335Z,100868.34
2019-04-10T18:11:20.467Z,100868.16
2019-04-10T18:13:53.745Z,100864.53
2019-04-10T18:16:25.632Z,100875.20
2019-04-10T18:18:57.021Z,100879.67
2019-04-10T18:21:28.781Z,100889.62
2019-04-10T18:24:00.061Z,100889.84
2019-04-10T18:26:31.932Z,100893.98
2019-04-10T18:29:02.873Z,100898.91
2019-04-10T18:31:34.762Z,100901.36
2019-04-10T18:34:09.657Z,100870.92
2019-04-10T18:36:38.658Z,100911.37
2019-04-10T18:39:15.452Z,100915.73
2019-04-10T18:41:47.089Z,100869.09
2019-04-10T18:44:17.953Z,100921.77
2019-04-10T18:46:48.943Z,100925.12
2019-04-10T18:49:21.082Z,100928.72
2019-04-10T18:51:52.102Z,100928.84
2019-04-10T18:54:23.172Z,100928.37
2019-04-10T18:56:54.123Z,100936.36
2019-04-10T18:59:45.309Z,100939.73
2019-04-10T19:02:34.900Z,100944.64
2019-04-10T19:05:16.128Z,100948.95
2019-04-10T19:07:48.227Z,100948.63
2019-04-10T19:10:19.933Z,100949.23
2019-04-10T19:12:51.135Z,100952.95
2019-04-10T19:15:24.931Z,100953.00
2019-04-10T19:17:55.851Z,100955.01
2019-04-10T19:20:27.046Z,100958.44
2019-04-10T19:22:59.134Z,100960.13
2019-04-10T19:25:30.337Z,100963.37
2019-04-10T19:28:02.406Z,100957.42
2019-04-10T19:30:37.415Z,100965.16
2019-04-10T19:33:08.640Z,100965.30
2019-04-10T19:35:39.537Z,100969.91
2019-04-10T19:38:11.686Z,100973.44
2019-04-10T19:40:43.792Z,100970.69
2019-04-10T19:43:16.009Z,100978.20
2019-04-10T19:45:48.104Z,100974.96
2019-04-10T19:48:21.875Z,100974.07
2019-04-10T19:50:53.704Z,100979.55
2019-04-10T19:53:25.117Z,100974.19
2019-04-10T19:55:56.119Z,100976.83
2019-04-10T19:58:30.206Z,100978.11
2019-04-10T20:01:01.186Z,100988.11
2019-04-10T20:03:32.740Z,100986.39
2019-04-10T20:06:03.981Z,100981.69
2019-04-10T20:08:35.635Z,100983.88
2019-04-10T20:11:08.780Z,100992.84
2019-04-10T20:13:40.896Z,100990.48
2019-04-10T20:16:11.684Z,100982.67
2019-04-10T20:18:43.238Z,100997.09
2019-04-10T20:21:15.521Z,101003.30
2019-04-10T20:23:46.563Z,100998.97
2019-04-10T20:26:17.394Z,100997.97
2019-04-10T20:28:48.435Z,101002.47
2019-04-10T20:31:25.551Z,101011.09
2019-04-10T20:33:56.902Z,101010.94
2019-04-10T20:36:29.099Z,101014.14
2019-04-10T20:39:01.047Z,101011.09
2019-04-10T20:41:46.035Z,101016.25
2019-04-10T20:44:07.282Z,101009.08
2019-04-10T20:46:39.456Z,101020.83
2019-04-10T20:49:10.455Z,101018.71
2019-04-10T20:51:42.017Z,101011.41
2019-04-10T20:54:13.278Z,101019.75
2019-04-10T20:56:44.466Z,101023.81
2019-04-10T20:59:15.635Z,101025.92
2019-04-10T21:01:47.014Z,101024.75
2019-04-10T21:04:18.093Z,101030.91
2019-04-10T21:06:50.144Z,101033.48
2019-04-10T21:09:21.642Z,101034.40
2019-04-10T21:12:02.041Z,101034.99
2019-04-10T21:14:25.476Z,101033.86
2019-04-10T21:16:56.790Z,101040.16
2019-04-10T21:19:31.566Z,101033.59
2019-04-10T21:22:03.799Z,101037.91
2019-04-10T21:24:35.750Z,101040.33
2019-04-10T21:27:07.158Z,101048.62
2019-04-10T21:29:57.052Z,101051.59
2019-04-10T21:32:50.003Z,101055.63
2019-04-10T21:35:27.104Z,101054.45
2019-04-10T21:37:59.127Z,101059.23
2019-04-10T21:40:30.649Z,101056.30
2019-04-10T21:43:01.670Z,101059.91
2019-04-10T21:45:33.341Z,101056.33
2019-04-10T21:48:06.393Z,101060.70
2019-04-10T21:50:37.798Z,101059.20
2019-04-10T21:53:08.648Z,101058.19
2019-04-10T21:55:39.846Z,101055.22
2019-04-10T21:58:12.928Z,101062.79
2019-04-10T22:01:01.401Z,101056.88
2019-04-10T22:03:34.273Z,101058.05
2019-04-10T22:06:15.159Z,101062.88
2019-04-10T22:08:52.030Z,101064.26
2019-04-10T22:11:23.598Z,101062.15
2019-04-10T22:13:54.851Z,101061.09
2019-04-10T22:16:26.257Z,101061.34
2019-04-10T22:18:58.185Z,101063.79
2019-04-10T22:21:29.178Z,101064.48
2019-04-10T22:24:00.961Z,101060.12
2019-04-10T22:26:32.148Z,101065.66
2019-04-10T22:29:03.619Z,101066.44
2019-04-10T22:31:36.020Z,101071.50
2019-04-10T22:34:07.400Z,101077.05
2019-04-10T22:36:39.427Z,101076.94
2019-04-10T22:39:14.606Z,101085.25
2019-04-10T22:41:46.225Z,101088.34
2019-04-10T22:44:17.617Z,101083.88
2019-04-10T22:46:48.626Z,101097.60
2019-04-10T22:49:20.231Z,101090.64
2019-04-10T22:51:51.804Z,101092.81
2019-04-10T22:54:23.008Z,101098.27
2019-04-10T22:56:54.459Z,101096.44
2019-04-10T22:59:26.303Z,101109.19
2019-04-10T23:02:03.390Z,101099.44
2019-04-10T23:04:30.768Z,101112.43
2019-04-10T23:07:01.854Z,101105.82
2019-04-10T23:09:33.124Z,101116.56
2019-04-10T23:12:07.842Z,101109.14
2019-04-10T23:14:38.786Z,101107.30
2019-04-10T23:17:10.715Z,101112.04
2019-04-10T23:19:42.502Z,101116.70
2019-04-10T23:22:14.923Z,101116.82
2019-04-10T23:24:46.090Z,101117.07
2019-04-10T23:27:17.716Z,101117.84
2019-04-10T23:29:48.878Z,101120.79
2019-04-10T23:32:20.117Z,101125.13
2019-04-10T23:34:51.025Z,101125.37
2019-04-10T23:37:22.571Z,101123.27
2019-04-10T23:39:54.521Z,101126.39
2019-04-10T23:42:25.872Z,101126.22
2019-04-10T23:44:57.501Z,101129.52
2019-04-10T23:47:28.606Z,101138.59
2019-04-10T23:49:59.775Z,101125.09
2019-04-10T23:52:31.840Z,101115.20
2019-04-10T23:55:03.980Z,101126.97
2019-04-10T23:57:35.684Z,101123.86
